createdAt,value
2019-03-23T00:01:03.901Z,10.92
2019-03-23T00:02:03.841Z,10.91
2019-03-23T00:03:56.657Z,10.89
2019-03-23T00:04:56.559Z,10.86
2019-03-23T00:06:49.341Z,10.84
2019-03-23T00:07:49.279Z,10.81
2019-03-23T00:09:42.093Z,10.88
2019-03-23T00:10:41.999Z,10.80
2019-03-23T00:12:34.820Z,10.84
2019-03-23T00:13:34.725Z,10.88
2019-03-23T00:15:27.520Z,10.81
2019-03-23T00:16:27.443Z,10.83
2019-03-23T00:18:20.266Z,10.77
2019-03-23T00:19:20.171Z,10.78
2019-03-23T00:21:12.952Z,10.76
2019-03-23T00:22:12.889Z,10.80
2019-03-23T00:33:41.345Z,10.80
2019-03-23T00:34:14.643Z,10.76
2019-03-23T00:36:07.431Z,10.78
2019-03-23T00:37:07.368Z,10.74
2019-03-23T00:39:00.184Z,10.78
2019-03-23T00:40:00.120Z,10.71
2019-03-23T00:41:52.918Z,10.73
2019-03-23T00:42:52.817Z,10.68
2019-03-23T00:44:45.601Z,10.65
2019-03-23T00:45:45.541Z,10.62
2019-03-23T00:47:38.353Z,10.65
2019-03-23T00:48:38.255Z,10.73
2019-03-23T00:50:31.038Z,10.66
2019-03-23T00:51:30.974Z,10.71
2019-03-23T00:53:23.792Z,10.68
2019-03-23T00:54:23.693Z,10.66
2019-03-23T00:56:16.655Z,10.62
2019-03-23T00:57:16.421Z,10.66
2019-03-23T00:59:09.232Z,10.68
2019-03-23T01:00:09.137Z,10.71
2019-03-23T01:02:01.923Z,10.58
2019-03-23T01:03:01.881Z,10.56
2019-03-23T01:04:54.680Z,10.60
2019-03-23T01:05:54.574Z,10.56
2019-03-23T01:07:47.392Z,10.56
2019-03-23T01:08:47.291Z,10.58
2019-03-23T01:10:40.110Z,10.58
2019-03-23T01:11:40.030Z,10.59
2019-03-23T01:13:32.802Z,10.62
2019-03-23T01:14:32.782Z,10.58
2019-03-23T01:16:25.550Z,10.63
2019-03-23T01:17:25.456Z,10.60
2019-03-23T01:19:18.237Z,10.63
2019-03-23T01:20:18.171Z,10.52
2019-03-23T01:22:10.992Z,10.47
2019-03-23T01:23:10.895Z,10.51
2019-03-23T01:25:03.680Z,10.51
2019-03-23T01:26:03.647Z,10.55
2019-03-23T01:27:56.427Z,10.53
2019-03-23T01:28:56.337Z,10.53
2019-03-23T01:30:49.123Z,10.53
2019-03-23T01:31:49.056Z,10.46
2019-03-23T01:33:41.874Z,10.44
2019-03-23T01:34:41.775Z,10.46
2019-03-23T01:36:34.600Z,10.46
2019-03-23T01:37:34.495Z,10.43
2019-03-23T01:39:27.278Z,10.51
2019-03-23T01:40:27.215Z,10.47
2019-03-23T01:42:20.039Z,10.47
2019-03-23T01:43:19.942Z,10.43
2019-03-23T01:45:12.759Z,10.43
2019-03-23T01:46:12.658Z,10.42
2019-03-23T01:48:05.475Z,10.44
2019-03-23T01:49:05.377Z,10.44
2019-03-23T01:50:58.193Z,10.40
2019-03-23T01:51:58.098Z,10.34
2019-03-23T01:53:50.916Z,10.34
2019-03-23T01:54:50.821Z,10.33
2019-03-23T01:56:43.639Z,10.34
2019-03-23T01:57:43.537Z,10.33
2019-03-23T01:59:36.357Z,10.39
2019-03-23T02:00:36.260Z,10.34
2019-03-23T02:02:29.078Z,10.37
2019-03-23T02:03:28.977Z,10.37
2019-03-23T02:05:21.761Z,10.33
2019-03-23T02:06:21.696Z,10.37
2019-03-23T02:08:14.522Z,10.34
2019-03-23T02:09:14.421Z,10.36
2019-03-23T02:11:07.201Z,10.36
2019-03-23T02:12:07.138Z,10.33
2019-03-23T02:13:59.954Z,10.36
2019-03-23T02:14:59.858Z,10.32
2019-03-23T02:16:52.675Z,10.26
2019-03-23T02:17:52.578Z,10.26
2019-03-23T02:19:45.363Z,10.30
2019-03-23T02:20:45.299Z,10.24
2019-03-23T02:22:38.119Z,10.34
2019-03-23T02:23:38.019Z,10.30
2019-03-23T02:25:31.389Z,10.30
2019-03-23T02:26:31.128Z,10.30
2019-03-23T02:28:23.744Z,10.28
2019-03-23T02:29:23.647Z,10.32
2019-03-23T02:31:16.432Z,10.33
2019-03-23T02:32:16.365Z,10.30
2019-03-23T02:34:09.189Z,10.19
2019-03-23T02:35:09.100Z,10.25
2019-03-23T02:37:01.870Z,10.24
2019-03-23T02:38:01.802Z,10.28
2019-03-23T02:39:54.626Z,10.24
2019-03-23T02:40:54.524Z,10.18
2019-03-23T02:42:47.308Z,10.22
2019-03-23T02:43:47.276Z,10.19
2019-03-23T02:45:40.055Z,10.14
2019-03-23T02:46:39.957Z,10.19
2019-03-23T02:48:32.786Z,10.18
2019-03-23T02:49:32.677Z,10.18
2019-03-23T02:51:25.581Z,10.17
2019-03-23T02:52:25.398Z,10.10
2019-03-23T02:54:18.215Z,10.09
2019-03-23T02:55:18.115Z,10.14
2019-03-23T02:57:10.931Z,10.10
2019-03-23T02:58:10.833Z,10.06
2019-03-23T03:00:03.647Z,10.07
2019-03-23T03:01:03.551Z,10.09
2019-03-23T03:02:56.333Z,10.17
2019-03-23T03:03:56.268Z,10.14
2019-03-23T03:05:49.084Z,10.15
2019-03-23T03:06:48.989Z,10.10
2019-03-23T03:08:41.770Z,10.06
2019-03-23T03:09:41.708Z,10.18
2019-03-23T03:11:34.524Z,10.21
2019-03-23T03:12:34.427Z,10.09
2019-03-23T03:14:27.214Z,10.14
2019-03-23T03:15:27.152Z,10.04
2019-03-23T03:17:19.978Z,10.09
2019-03-23T03:18:19.869Z,10.01
2019-03-23T03:20:12.683Z,10.06
2019-03-23T03:21:12.586Z,10.06
2019-03-23T03:23:05.423Z,10.01
2019-03-23T03:24:05.311Z,10.04
2019-03-23T03:25:58.116Z,10.01
2019-03-23T03:26:58.027Z,10.04
2019-03-23T03:28:51.429Z,10.04
2019-03-23T03:29:50.938Z,10.00
2019-03-23T03:31:43.745Z,10.12
2019-03-23T03:32:43.657Z,10.04
2019-03-23T03:34:36.469Z,10.07
2019-03-23T03:35:36.372Z,9.97
2019-03-23T03:37:29.155Z,10.01
2019-03-23T03:38:29.095Z,9.96
2019-03-23T03:40:21.912Z,9.96
2019-03-23T03:41:21.815Z,9.97
2019-03-23T03:43:14.596Z,10.03
2019-03-23T03:44:14.533Z,9.94
2019-03-23T03:46:08.238Z,9.89
2019-03-23T03:47:07.945Z,9.94
2019-03-23T03:48:07.883Z,9.89
2019-03-23T03:49:12.665Z,9.91
2019-03-23T03:50:07.766Z,9.91
2019-03-23T03:51:07.710Z,9.88
2019-03-23T03:52:07.648Z,9.93
2019-03-23T03:53:07.592Z,9.96
2019-03-23T03:54:07.536Z,9.93
2019-03-23T03:55:07.474Z,9.91
2019-03-23T03:56:07.411Z,9.89
2019-03-23T03:57:07.359Z,9.93
2019-03-23T03:58:07.301Z,9.88
2019-03-23T03:59:07.254Z,9.93
2019-03-23T04:00:07.182Z,9.91
2019-03-23T04:01:07.118Z,9.88
2019-03-23T04:02:07.064Z,9.94
2019-03-23T04:03:07.003Z,9.93
2019-03-23T04:04:06.945Z,9.88
2019-03-23T04:05:06.885Z,9.88
2019-03-23T04:06:06.822Z,9.94
2019-03-23T04:07:06.767Z,9.89
2019-03-23T04:08:11.635Z,9.91
2019-03-23T04:09:06.646Z,9.91
2019-03-23T04:10:06.591Z,9.94
2019-03-23T04:11:06.527Z,9.82
2019-03-23T04:12:06.469Z,9.82
2019-03-23T04:13:06.408Z,9.81
2019-03-23T04:14:06.359Z,9.86
2019-03-23T04:15:06.292Z,9.86
2019-03-23T04:16:06.236Z,9.86
2019-03-23T04:17:06.171Z,9.86
2019-03-23T04:18:06.116Z,9.82
2019-03-23T04:19:06.055Z,9.82
2019-03-23T04:20:06.000Z,9.82
2019-03-23T04:21:05.941Z,9.83
2019-03-23T04:22:05.877Z,9.78
2019-03-23T04:23:05.822Z,9.82
2019-03-23T04:24:05.770Z,9.76
2019-03-23T04:25:05.709Z,9.76
2019-03-23T04:26:05.641Z,9.79
2019-03-23T04:27:05.583Z,9.83
2019-03-23T04:28:05.523Z,9.79
2019-03-23T04:29:05.468Z,9.78
2019-03-23T04:30:05.407Z,9.79
2019-03-23T04:31:05.351Z,9.73
2019-03-23T04:32:05.291Z,9.81
2019-03-23T04:33:05.236Z,9.82
2019-03-23T04:34:05.168Z,9.71
2019-03-23T04:35:05.110Z,9.76
2019-03-23T04:36:05.050Z,9.81
2019-03-23T04:37:04.991Z,9.79
2019-03-23T04:38:04.932Z,9.71
2019-03-23T04:39:04.877Z,9.68
2019-03-23T04:40:04.814Z,9.75
2019-03-23T04:41:04.755Z,9.70
2019-03-23T04:42:04.696Z,9.64
2019-03-23T04:43:04.644Z,9.70
2019-03-23T04:44:04.575Z,9.64
2019-03-23T04:45:04.518Z,9.78
2019-03-23T04:46:04.465Z,9.75
2019-03-23T04:47:04.402Z,9.67
2019-03-23T04:48:04.345Z,9.68
2019-03-23T04:49:04.282Z,9.64
2019-03-23T04:50:04.224Z,9.67
2019-03-23T04:51:04.167Z,9.68
2019-03-23T04:52:04.103Z,9.71
2019-03-23T04:53:04.044Z,9.73
2019-03-23T04:54:03.986Z,9.67
2019-03-23T04:55:03.928Z,9.70
2019-03-23T04:56:03.868Z,9.67
2019-03-23T04:57:03.807Z,9.68
2019-03-23T04:58:03.751Z,9.66
2019-03-23T04:59:03.690Z,9.67
2019-03-23T05:00:03.630Z,9.66
2019-03-23T05:01:04.478Z,9.66
2019-03-23T05:02:03.512Z,9.64
2019-03-23T05:03:03.457Z,9.67
2019-03-23T05:04:03.396Z,9.66
2019-03-23T05:05:03.335Z,9.63
2019-03-23T05:06:03.276Z,9.67
2019-03-23T05:07:03.228Z,9.67
2019-03-23T05:08:03.156Z,9.73
2019-03-23T05:09:03.098Z,9.61
2019-03-23T05:10:03.039Z,9.63
2019-03-23T05:11:02.984Z,9.64
2019-03-23T05:12:02.920Z,9.60
2019-03-23T05:13:02.861Z,9.53
2019-03-23T05:14:02.804Z,9.57
2019-03-23T05:15:02.745Z,9.67
2019-03-23T05:16:02.684Z,9.60
2019-03-23T05:17:02.623Z,9.60
2019-03-23T05:18:02.566Z,9.60
2019-03-23T05:19:02.505Z,9.57
2019-03-23T05:20:02.445Z,9.53
2019-03-23T05:21:02.389Z,9.58
2019-03-23T05:22:02.335Z,9.56
2019-03-23T05:23:02.270Z,9.57
2019-03-23T05:24:02.209Z,9.53
2019-03-23T05:25:02.150Z,9.56
2019-03-23T05:26:02.090Z,9.60
2019-03-23T05:27:02.033Z,9.56
2019-03-23T05:28:01.971Z,9.57
2019-03-23T05:29:01.915Z,9.58
2019-03-23T05:30:01.854Z,9.49
2019-03-23T05:31:01.798Z,9.52
2019-03-23T05:32:01.735Z,9.52
2019-03-23T05:33:01.678Z,9.57
2019-03-23T05:34:01.619Z,9.61
2019-03-23T05:35:01.557Z,9.52
2019-03-23T05:36:01.502Z,9.46
2019-03-23T05:37:01.442Z,9.52
2019-03-23T05:38:01.378Z,9.52
2019-03-23T05:39:01.320Z,9.43
2019-03-23T05:40:01.261Z,9.42
2019-03-23T05:41:01.204Z,9.48
2019-03-23T05:42:01.141Z,9.40
2019-03-23T05:43:01.082Z,9.39
2019-03-23T05:44:01.022Z,9.43
2019-03-23T05:45:00.964Z,9.39
2019-03-23T05:46:00.904Z,9.45
2019-03-23T05:47:00.845Z,9.39
2019-03-23T05:48:00.785Z,9.40
2019-03-23T05:49:00.726Z,9.46
2019-03-23T05:50:00.667Z,9.48
2019-03-23T05:51:00.607Z,9.50
2019-03-23T05:52:01.543Z,9.42
2019-03-23T05:53:00.489Z,9.43
2019-03-23T05:54:00.432Z,9.45
2019-03-23T05:55:00.370Z,9.42
2019-03-23T05:56:00.310Z,9.43
2019-03-23T05:57:00.253Z,9.35
2019-03-23T05:58:00.193Z,9.49
2019-03-23T05:59:00.134Z,9.45
2019-03-23T06:00:00.078Z,9.43
2019-03-23T06:01:00.014Z,9.45
2019-03-23T06:01:59.955Z,9.50
2019-03-23T06:02:59.896Z,9.43
2019-03-23T06:03:59.834Z,9.48
2019-03-23T06:04:59.777Z,9.42
2019-03-23T06:05:59.717Z,9.46
2019-03-23T06:06:59.658Z,9.43
2019-03-23T06:07:59.604Z,9.45
2019-03-23T06:08:59.538Z,9.46
2019-03-23T06:09:59.479Z,9.39
2019-03-23T06:10:59.420Z,9.39
2019-03-23T06:11:59.364Z,9.46
2019-03-23T06:12:59.310Z,9.49
2019-03-23T06:13:59.243Z,9.45
2019-03-23T06:14:59.182Z,9.42
2019-03-23T06:15:59.122Z,9.43
2019-03-23T06:16:59.063Z,9.43
2019-03-23T06:17:59.005Z,9.50
2019-03-23T06:18:58.946Z,9.40
2019-03-23T06:19:58.886Z,9.43
2019-03-23T06:20:58.826Z,9.40
2019-03-23T06:21:58.765Z,9.42
2019-03-23T06:22:58.707Z,9.43
2019-03-23T06:23:58.647Z,9.42
2019-03-23T06:24:58.588Z,9.43
2019-03-23T06:25:58.529Z,9.42
2019-03-23T06:26:58.469Z,9.49
2019-03-23T06:27:58.410Z,9.31
2019-03-23T06:28:58.352Z,9.42
2019-03-23T06:29:58.296Z,9.39
2019-03-23T06:30:58.232Z,9.42
2019-03-23T06:31:58.174Z,9.39
2019-03-23T06:32:59.401Z,9.40
2019-03-23T06:33:58.052Z,9.40
2019-03-23T06:34:57.993Z,9.42
2019-03-23T06:35:57.933Z,9.42
2019-03-23T06:36:57.878Z,9.42
2019-03-23T06:37:58.441Z,9.39
2019-03-23T06:39:05.493Z,9.38
2019-03-23T06:39:57.698Z,9.32
2019-03-23T06:40:57.639Z,9.43
2019-03-23T06:41:57.582Z,9.43
2019-03-23T06:42:59.939Z,9.40
2019-03-23T06:43:57.457Z,9.42
2019-03-23T06:44:57.399Z,9.40
2019-03-23T06:45:57.339Z,9.32
2019-03-23T06:46:57.280Z,9.42
2019-03-23T06:47:57.221Z,9.43
2019-03-23T06:48:57.160Z,9.43
2019-03-23T06:49:57.102Z,9.40
2019-03-23T06:50:57.043Z,9.43
2019-03-23T06:51:56.988Z,9.42
2019-03-23T06:52:56.923Z,9.40
2019-03-23T06:53:56.863Z,9.34
2019-03-23T06:54:56.804Z,9.43
2019-03-23T06:55:56.743Z,9.42
2019-03-23T06:56:56.687Z,9.40
2019-03-23T06:57:56.627Z,9.40
2019-03-23T06:58:56.567Z,9.46
2019-03-23T06:59:56.510Z,9.39
2019-03-23T07:00:56.447Z,9.45
2019-03-23T07:01:56.387Z,9.42
2019-03-23T07:02:56.327Z,9.45
2019-03-23T07:03:56.268Z,9.43
2019-03-23T07:04:56.208Z,9.40
2019-03-23T07:05:56.154Z,9.39
2019-03-23T07:06:56.091Z,9.46
2019-03-23T07:07:56.031Z,9.45
2019-03-23T07:08:55.971Z,9.45
2019-03-23T07:09:55.911Z,9.40
2019-03-23T07:10:55.854Z,9.46
2019-03-23T07:11:55.798Z,9.49
2019-03-23T07:12:55.751Z,9.40
2019-03-23T07:13:55.676Z,9.42
2019-03-23T07:14:55.613Z,9.57
2019-03-23T07:15:55.556Z,9.49
2019-03-23T07:16:55.497Z,9.43
2019-03-23T07:17:55.435Z,9.48
2019-03-23T07:18:55.379Z,9.43
2019-03-23T07:19:55.322Z,9.50
2019-03-23T07:20:55.256Z,9.46
2019-03-23T07:21:55.201Z,9.46
2019-03-23T07:22:55.138Z,9.40
2019-03-23T07:23:55.079Z,9.48
2019-03-23T07:24:55.019Z,9.48
2019-03-23T07:25:54.961Z,9.48
2019-03-23T07:26:54.902Z,9.40
2019-03-23T07:27:54.843Z,9.42
2019-03-23T07:28:54.781Z,9.52
2019-03-23T07:29:54.722Z,9.48
2019-03-23T07:30:54.666Z,9.39
2019-03-23T07:32:05.272Z,9.50
2019-03-23T07:32:54.546Z,9.49
2019-03-23T07:33:54.483Z,9.52
2019-03-23T07:34:54.460Z,9.43
2019-03-23T07:35:54.365Z,9.43
2019-03-23T07:36:54.308Z,9.56
2019-03-23T07:37:54.245Z,9.53
2019-03-23T07:38:54.187Z,9.52
2019-03-23T07:39:54.131Z,9.57
2019-03-23T07:40:54.068Z,9.57
2019-03-23T07:41:54.007Z,9.53
2019-03-23T07:42:53.953Z,9.57
2019-03-23T07:43:53.889Z,9.56
2019-03-23T07:44:53.828Z,9.53
2019-03-23T07:45:53.770Z,9.52
2019-03-23T07:46:53.710Z,9.53
2019-03-23T07:47:53.701Z,9.57
2019-03-23T07:48:53.590Z,9.56
2019-03-23T07:49:53.531Z,9.57
2019-03-23T07:50:53.477Z,9.61
2019-03-23T07:51:53.957Z,9.56
2019-03-23T07:52:53.358Z,9.58
2019-03-23T07:53:53.303Z,9.66
2019-03-23T07:54:53.238Z,9.50
2019-03-23T07:55:53.175Z,9.52
2019-03-23T07:56:53.118Z,9.70
2019-03-23T07:57:53.056Z,9.60
2019-03-23T07:58:52.998Z,9.67
2019-03-23T07:59:52.940Z,9.68
2019-03-23T08:00:52.877Z,9.66
2019-03-23T08:01:52.818Z,9.73
2019-03-23T08:02:52.758Z,9.66
2019-03-23T08:03:52.715Z,9.64
2019-03-23T08:04:52.639Z,9.63
2019-03-23T08:05:52.579Z,9.67
2019-03-23T08:06:52.526Z,9.63
2019-03-23T08:07:52.460Z,9.68
2019-03-23T08:08:52.402Z,9.66
2019-03-23T08:09:52.345Z,9.71
2019-03-23T08:10:52.287Z,9.67
2019-03-23T08:11:52.226Z,9.71
2019-03-23T08:12:52.166Z,9.70
2019-03-23T08:13:52.112Z,9.66
2019-03-23T08:14:52.049Z,9.66
2019-03-23T08:15:52.038Z,9.67
2019-03-23T08:16:51.926Z,9.68
2019-03-23T08:17:51.867Z,9.71
2019-03-23T08:18:51.808Z,9.64
2019-03-23T08:19:51.776Z,9.76
2019-03-23T08:20:51.687Z,9.73
2019-03-23T08:21:51.630Z,9.76
2019-03-23T08:22:51.569Z,9.75
2019-03-23T08:23:51.514Z,9.78
2019-03-23T08:24:51.450Z,9.70
2019-03-23T08:25:51.391Z,9.71
2019-03-23T08:26:51.332Z,9.76
2019-03-23T08:27:51.271Z,9.79
2019-03-23T08:28:51.227Z,9.81
2019-03-23T08:29:51.153Z,9.79
2019-03-23T08:30:51.095Z,9.82
2019-03-23T08:31:51.036Z,9.78
2019-03-23T08:32:50.974Z,9.79
2019-03-23T08:33:52.075Z,9.79
2019-03-23T08:34:50.859Z,9.81
2019-03-23T08:35:50.797Z,9.81
2019-03-23T08:36:50.742Z,9.83
2019-03-23T08:37:50.684Z,9.82
2019-03-23T08:38:51.701Z,9.78
2019-03-23T08:39:50.559Z,9.79
2019-03-23T08:40:50.504Z,9.81
2019-03-23T08:41:50.441Z,9.78
2019-03-23T08:42:50.389Z,9.82
2019-03-23T08:43:50.321Z,9.82
2019-03-23T08:44:50.261Z,9.82
2019-03-23T08:45:50.202Z,9.82
2019-03-23T08:46:50.147Z,9.83
2019-03-23T08:47:50.083Z,9.86
2019-03-23T08:48:50.025Z,9.83
2019-03-23T08:49:49.966Z,9.89
2019-03-23T08:50:49.908Z,9.86
2019-03-23T08:51:49.847Z,9.88
2019-03-23T08:52:49.790Z,9.96
2019-03-23T08:53:49.728Z,9.89
2019-03-23T08:54:49.675Z,9.91
2019-03-23T08:55:49.608Z,9.93
2019-03-23T08:56:49.553Z,9.93
2019-03-23T08:57:49.490Z,9.91
2019-03-23T08:58:49.437Z,9.96
2019-03-23T08:59:49.371Z,9.99
2019-03-23T09:00:49.313Z,9.93
2019-03-23T09:01:49.254Z,9.94
2019-03-23T09:02:49.200Z,9.96
2019-03-23T09:03:52.757Z,9.91
2019-03-23T09:04:49.075Z,9.94
2019-03-23T09:05:49.016Z,9.91
2019-03-23T09:06:48.963Z,10.00
2019-03-23T09:07:48.898Z,10.07
2019-03-23T09:08:48.840Z,10.09
2019-03-23T09:09:58.605Z,10.04
2019-03-23T09:10:48.723Z,10.04
2019-03-23T09:11:48.660Z,10.09
2019-03-23T09:12:48.601Z,10.06
2019-03-23T09:13:48.545Z,10.01
2019-03-23T09:14:48.482Z,10.04
2019-03-23T09:15:48.422Z,10.04
2019-03-23T09:16:48.364Z,9.99
2019-03-23T09:17:48.304Z,10.00
2019-03-23T09:18:48.247Z,10.01
2019-03-23T09:19:48.186Z,10.04
2019-03-23T09:20:48.127Z,10.03
2019-03-23T09:21:48.069Z,10.17
2019-03-23T09:22:48.009Z,10.12
2019-03-23T09:23:47.950Z,10.06
2019-03-23T09:24:47.889Z,10.12
2019-03-23T09:25:47.836Z,10.04
2019-03-23T09:26:47.810Z,10.14
2019-03-23T09:27:47.712Z,10.10
2019-03-23T09:28:47.657Z,10.14
2019-03-23T09:29:47.597Z,10.10
2019-03-23T09:30:47.534Z,10.12
2019-03-23T09:31:47.476Z,10.07
2019-03-23T09:32:47.415Z,10.24
2019-03-23T09:33:47.360Z,10.22
2019-03-23T09:34:47.297Z,10.21
2019-03-23T09:35:47.237Z,10.21
2019-03-23T09:36:47.179Z,10.17
2019-03-23T09:37:47.120Z,10.19
2019-03-23T09:38:47.060Z,10.15
2019-03-23T09:39:47.000Z,10.21
2019-03-23T09:40:46.942Z,10.25
2019-03-23T09:41:46.883Z,10.22
2019-03-23T09:42:46.825Z,10.19
2019-03-23T09:43:46.762Z,10.26
2019-03-23T09:44:46.704Z,10.26
2019-03-23T09:45:46.645Z,10.26
2019-03-23T09:46:46.586Z,10.32
2019-03-23T09:47:46.527Z,10.34
2019-03-23T09:48:46.982Z,10.28
2019-03-23T09:49:46.408Z,10.33
2019-03-23T09:50:46.357Z,10.25
2019-03-23T09:51:46.294Z,10.42
2019-03-23T09:52:46.232Z,10.39
2019-03-23T09:53:46.173Z,10.39
2019-03-23T09:54:46.117Z,10.32
2019-03-23T09:55:46.054Z,10.34
2019-03-23T09:56:45.995Z,10.33
2019-03-23T09:57:45.936Z,10.33
2019-03-23T09:58:45.876Z,10.39
2019-03-23T09:59:45.817Z,10.36
2019-03-23T10:00:45.765Z,10.40
2019-03-23T10:01:45.701Z,10.36
2019-03-23T10:02:45.640Z,10.30
2019-03-23T10:03:45.588Z,10.33
2019-03-23T10:04:45.523Z,10.37
2019-03-23T10:05:45.464Z,10.47
2019-03-23T10:06:45.411Z,10.42
2019-03-23T10:07:45.345Z,10.47
2019-03-23T10:08:46.409Z,10.47
2019-03-23T10:09:45.226Z,10.44
2019-03-23T10:10:45.168Z,10.46
2019-03-23T10:11:45.109Z,10.53
2019-03-23T10:12:45.049Z,10.51
2019-03-23T10:13:44.992Z,10.51
2019-03-23T10:14:44.935Z,10.46
2019-03-23T10:15:44.881Z,10.46
2019-03-23T10:16:44.821Z,10.46
2019-03-23T10:17:44.754Z,10.62
2019-03-23T10:18:44.701Z,10.56
2019-03-23T10:19:44.639Z,10.53
2019-03-23T10:20:44.579Z,10.51
2019-03-23T10:21:44.518Z,10.59
2019-03-23T10:22:44.462Z,10.55
2019-03-23T10:23:44.399Z,10.59
2019-03-23T10:24:44.341Z,10.59
2019-03-23T10:25:44.282Z,10.56
2019-03-23T10:26:44.224Z,10.62
2019-03-23T10:27:44.164Z,10.60
2019-03-23T10:28:44.104Z,10.58
2019-03-23T10:29:44.046Z,10.60
2019-03-23T10:30:43.988Z,10.68
2019-03-23T10:31:43.927Z,10.59
2019-03-23T10:32:43.870Z,10.70
2019-03-23T10:33:43.811Z,10.68
2019-03-23T10:34:43.751Z,10.68
2019-03-23T10:35:43.693Z,10.68
2019-03-23T10:36:43.637Z,10.68
2019-03-23T10:37:43.577Z,10.74
2019-03-23T10:38:43.515Z,10.71
2019-03-23T10:39:43.456Z,10.71
2019-03-23T10:40:43.399Z,10.62
2019-03-23T10:41:43.338Z,10.66
2019-03-23T10:42:43.540Z,10.74
2019-03-23T10:43:43.221Z,10.77
2019-03-23T10:44:43.162Z,10.76
2019-03-23T10:45:44.433Z,10.78
2019-03-23T10:46:43.045Z,10.78
2019-03-23T10:47:43.124Z,10.77
2019-03-23T10:48:42.929Z,10.78
2019-03-23T10:49:42.876Z,10.74
2019-03-23T10:50:42.809Z,10.78
2019-03-23T10:51:42.757Z,10.83
2019-03-23T10:52:42.708Z,10.86
2019-03-23T10:53:42.632Z,10.86
2019-03-23T10:54:42.574Z,10.81
2019-03-23T10:55:42.514Z,10.81
2019-03-23T10:56:42.458Z,10.81
2019-03-23T10:57:42.396Z,10.80
2019-03-23T10:58:42.338Z,10.80
2019-03-23T10:59:42.278Z,10.83
2019-03-23T11:00:42.219Z,10.84
2019-03-23T11:01:42.161Z,10.86
2019-03-23T11:02:42.102Z,10.81
2019-03-23T11:03:42.043Z,10.89
2019-03-23T11:04:41.986Z,10.84
2019-03-23T11:05:41.927Z,10.86
2019-03-23T11:06:41.867Z,10.98
2019-03-23T11:07:41.812Z,10.95
2019-03-23T11:08:41.752Z,10.98
2019-03-23T11:09:41.710Z,10.96
2019-03-23T11:10:42.127Z,10.96
2019-03-23T11:11:41.577Z,10.96
2019-03-23T11:12:41.520Z,10.94
2019-03-23T11:13:41.456Z,11.03
2019-03-23T11:14:41.396Z,11.01
2019-03-23T11:15:41.340Z,10.98
2019-03-23T11:16:41.278Z,11.01
2019-03-23T11:17:41.221Z,10.92
2019-03-23T11:18:41.163Z,10.96
2019-03-23T11:19:41.105Z,11.06
2019-03-23T11:20:41.044Z,11.06
2019-03-23T11:21:40.993Z,10.99
2019-03-23T11:22:40.926Z,11.02
2019-03-23T11:23:40.866Z,11.06
2019-03-23T11:24:40.810Z,11.06
2019-03-23T11:25:40.751Z,11.07
2019-03-23T11:26:40.691Z,11.09
2019-03-23T11:27:40.632Z,11.06
2019-03-23T11:28:40.573Z,11.11
2019-03-23T11:29:40.515Z,11.17
2019-03-23T11:30:40.456Z,11.11
2019-03-23T11:31:40.399Z,11.07
2019-03-23T11:32:40.339Z,11.17
2019-03-23T11:33:40.281Z,11.17
2019-03-23T11:34:40.222Z,11.17
2019-03-23T11:35:40.163Z,11.11
2019-03-23T11:36:40.104Z,11.16
2019-03-23T11:37:40.299Z,11.10
2019-03-23T11:38:39.989Z,11.02
2019-03-23T11:39:39.928Z,11.19
2019-03-23T11:40:39.875Z,11.11
2019-03-23T11:41:39.814Z,11.21
2019-03-23T11:42:49.125Z,11.19
2019-03-23T11:43:39.698Z,11.21
2019-03-23T11:44:39.658Z,11.20
2019-03-23T11:45:39.580Z,11.20
2019-03-23T11:46:39.525Z,11.24
2019-03-23T11:47:39.465Z,11.16
2019-03-23T11:48:39.404Z,11.24
2019-03-23T11:49:39.342Z,11.24
2019-03-23T11:50:39.284Z,11.28
2019-03-23T11:51:39.224Z,11.27
2019-03-23T11:52:39.166Z,11.28
2019-03-23T11:53:39.118Z,11.35
2019-03-23T11:54:39.049Z,11.29
2019-03-23T11:55:38.990Z,11.29
2019-03-23T11:56:38.932Z,11.34
2019-03-23T11:57:38.873Z,11.31
2019-03-23T11:58:38.818Z,11.36
2019-03-23T11:59:38.755Z,11.35
2019-03-23T12:00:38.701Z,11.31
2019-03-23T12:01:38.644Z,11.38
2019-03-23T12:02:38.582Z,11.38
2019-03-23T12:03:38.525Z,11.41
2019-03-23T12:04:38.465Z,11.43
2019-03-23T12:05:38.406Z,11.44
2019-03-23T12:06:38.349Z,11.35
2019-03-23T12:07:38.290Z,11.49
2019-03-23T12:08:38.229Z,11.44
2019-03-23T12:09:38.172Z,11.50
2019-03-23T12:10:38.115Z,11.39
2019-03-23T12:11:38.053Z,11.44
2019-03-23T12:12:37.995Z,11.38
2019-03-23T12:13:37.940Z,11.54
2019-03-23T12:14:37.921Z,11.47
2019-03-23T12:15:37.821Z,11.47
2019-03-23T12:16:37.763Z,11.50
2019-03-23T12:17:37.708Z,11.52
2019-03-23T12:18:37.645Z,11.50
2019-03-23T12:19:37.586Z,11.46
2019-03-23T12:20:37.528Z,11.50
2019-03-23T12:21:37.471Z,11.57
2019-03-23T12:22:37.418Z,11.50
2019-03-23T12:23:37.352Z,11.59
2019-03-23T12:24:37.293Z,11.53
2019-03-23T12:25:37.236Z,11.57
2019-03-23T12:26:37.178Z,11.59
2019-03-23T12:27:37.123Z,11.64
2019-03-23T12:28:37.061Z,11.62
2019-03-23T12:29:37.004Z,11.59
2019-03-23T12:30:36.944Z,11.61
2019-03-23T12:31:36.886Z,11.67
2019-03-23T12:32:36.853Z,11.68
2019-03-23T12:33:36.770Z,11.67
2019-03-23T12:34:36.710Z,11.67
2019-03-23T12:35:36.654Z,11.71
2019-03-23T12:36:36.595Z,11.70
2019-03-23T12:37:36.537Z,11.70
2019-03-23T12:38:36.478Z,11.67
2019-03-23T12:39:36.419Z,11.65
2019-03-23T12:40:36.557Z,11.71
2019-03-23T12:41:36.302Z,11.72
2019-03-23T12:42:36.249Z,11.71
2019-03-23T12:43:36.186Z,11.75
2019-03-23T12:44:36.131Z,11.78
2019-03-23T12:45:36.070Z,11.77
2019-03-23T12:46:36.011Z,11.77
2019-03-23T12:47:35.968Z,11.78
2019-03-23T12:48:35.898Z,11.78
2019-03-23T12:49:35.837Z,11.85
2019-03-23T12:50:35.778Z,11.83
2019-03-23T12:51:35.722Z,11.80
2019-03-23T12:52:35.665Z,11.87
2019-03-23T12:53:35.605Z,11.86
2019-03-23T12:54:35.545Z,11.86
2019-03-23T12:55:35.488Z,11.83
2019-03-23T12:56:35.428Z,11.82
2019-03-23T12:57:35.382Z,11.90
2019-03-23T12:58:35.315Z,11.80
2019-03-23T12:59:35.255Z,11.87
2019-03-23T13:00:35.196Z,11.94
2019-03-23T13:01:35.140Z,11.82
2019-03-23T13:02:35.084Z,11.83
2019-03-23T13:03:35.024Z,11.86
2019-03-23T13:04:34.964Z,11.94
2019-03-23T13:05:34.907Z,11.86
2019-03-23T13:06:34.848Z,11.94
2019-03-23T13:07:34.790Z,11.86
2019-03-23T13:08:34.732Z,11.94
2019-03-23T13:09:34.674Z,11.96
2019-03-23T13:10:34.617Z,12.02
2019-03-23T13:11:35.629Z,11.97
2019-03-23T13:12:34.499Z,11.97
2019-03-23T13:13:34.447Z,11.99
2019-03-23T13:14:34.385Z,11.99
2019-03-23T13:15:34.326Z,12.05
2019-03-23T13:16:34.267Z,11.89
2019-03-23T13:17:34.209Z,12.06
2019-03-23T13:18:34.157Z,11.97
2019-03-23T13:19:34.094Z,12.05
2019-03-23T13:21:33.985Z,11.94
2019-03-23T13:22:33.922Z,12.04
2019-03-23T13:23:33.870Z,11.96
2019-03-23T13:24:33.803Z,11.97
2019-03-23T13:25:33.745Z,12.01
2019-03-23T13:26:33.694Z,12.01
2019-03-23T13:27:33.634Z,11.99
2019-03-23T13:28:33.570Z,12.09
2019-03-23T13:29:33.513Z,12.06
2019-03-23T13:30:33.455Z,12.06
2019-03-23T13:31:35.400Z,12.02
2019-03-23T13:32:33.339Z,12.02
2019-03-23T13:33:33.284Z,12.02
2019-03-23T13:34:33.222Z,12.04
2019-03-23T13:35:33.164Z,12.01
2019-03-23T13:36:33.109Z,12.05
2019-03-23T13:37:33.051Z,12.08
2019-03-23T13:38:32.991Z,12.13
2019-03-23T13:39:32.934Z,12.12
2019-03-23T13:40:32.875Z,12.13
2019-03-23T13:41:32.818Z,12.11
2019-03-23T13:42:34.179Z,12.13
2019-03-23T13:43:32.706Z,12.09
2019-03-23T13:44:32.645Z,12.16
2019-03-23T13:45:42.271Z,12.15
2019-03-23T13:46:32.531Z,12.15
2019-03-23T13:47:32.471Z,12.12
2019-03-23T13:48:32.412Z,12.21
2019-03-23T13:49:32.354Z,12.16
2019-03-23T13:50:32.298Z,12.15
2019-03-23T13:51:32.239Z,12.16
2019-03-23T13:52:32.180Z,12.19
2019-03-23T13:53:32.122Z,12.20
2019-03-23T13:54:32.065Z,12.21
2019-03-23T13:55:32.007Z,12.23
2019-03-23T13:56:31.989Z,12.29
2019-03-23T13:57:31.891Z,12.20
2019-03-23T13:58:31.836Z,12.20
2019-03-23T13:59:31.775Z,12.24
2019-03-23T14:00:31.729Z,12.26
2019-03-23T14:01:31.662Z,12.19
2019-03-23T14:02:31.607Z,12.23
2019-03-23T14:03:31.544Z,12.26
2019-03-23T14:04:31.488Z,12.24
2019-03-23T14:05:31.430Z,12.24
2019-03-23T14:06:31.407Z,12.34
2019-03-23T14:07:31.314Z,12.27
2019-03-23T14:08:31.256Z,12.33
2019-03-23T14:09:31.202Z,12.33
2019-03-23T14:10:31.142Z,12.31
2019-03-23T14:11:31.082Z,12.29
2019-03-23T14:12:31.024Z,12.27
2019-03-23T14:13:30.967Z,12.34
2019-03-23T14:14:30.910Z,12.30
2019-03-23T14:15:30.852Z,12.33
2019-03-23T14:16:30.803Z,12.37
2019-03-23T14:17:30.737Z,12.34
2019-03-23T14:18:30.680Z,12.44
2019-03-23T14:19:30.630Z,12.42